sensor_id;sensor_type;location;lat;lon;timestamp;temperature;humidity
34837;DHT22;21053;50.848;4.652;2023-01-29T00:00:09;-0.70;99.90
34837;DHT22;21053;50.848;4.652;2023-01-29T00:02:41;-0.70;99.90
34837;DHT22;21053;50.848;4.652;2023-01-29T00:05:07;-0.60;99.90
34837;DHT22;21053;50.848;4.652;2023-01-29T00:07:36;-0.50;99.90
34837;DHT22;21053;50.848;4.652;2023-01-29T00:10:05;-0.50;99.90
34837;DHT22;21053;50.848;4.652;2023-01-29T00:12:32;-0.50;99.90
34837;DHT22;21053;50.848;4.652;2023-01-29T00:15:00;-0.70;99.90
34837;DHT22;21053;50.848;4.652;2023-01-29T00:17:27;-0.60;99.90
34837;DHT22;21053;50.848;4.652;2023-01-29T00:19:54;-0.60;99.90
34837;DHT22;21053;50.848;4.652;2023-01-29T00:22:20;-0.60;99.90
34837;DHT22;21053;50.848;4.652;2023-01-29T00:24:49;-0.60;99.90
34837;DHT22;21053;50.848;4.652;2023-01-29T00:27:15;-0.70;99.90
34837;DHT22;21053;50.848;4.652;2023-01-29T00:29:40;-0.70;99.90
34837;DHT22;21053;50.848;4.652;2023-01-29T00:32:06;-0.80;99.90
34837;DHT22;21053;50.848;4.652;2023-01-29T00:34:34;-0.80;99.90
34837;DHT22;21053;50.848;4.652;2023-01-29T00:37:01;-0.90;99.90
34837;DHT22;21053;50.848;4.652;2023-01-29T00:39:32;-0.90;99.90
34837;DHT22;21053;50.848;4.652;2023-01-29T00:42:09;-0.80;99.90
34837;DHT22;21053;50.848;4.652;2023-01-29T00:44:54;-0.90;99.90
34837;DHT22;21053;50.848;4.652;2023-01-29T00:47:22;-1.00;99.90
34837;DHT22;21053;50.848;4.652;2023-01-29T00:49:55;-1.10;99.90
34837;DHT22;21053;50.848;4.652;2023-01-29T00:52:21;-1.00;99.90
34837;DHT22;21053;50.848;4.652;2023-01-29T00:54:58;-1.00;99.90
34837;DHT22;21053;50.848;4.652;2023-01-29T00:57:28;-1.00;99.90
34837;DHT22;21053;50.848;4.652;2023-01-29T00:59:55;-1.00;99.90
34837;DHT22;21053;50.848;4.652;2023-01-29T01:02:23;-1.00;99.90
34837;DHT22;21053;50.848;4.652;2023-01-29T01:05:11;-1.00;99.90
34837;DHT22;21053;50.848;4.652;2023-01-29T01:07:52;-1.00;99.90
34837;DHT22;21053;50.848;4.652;2023-01-29T01:10:21;-1.10;99.90
34837;DHT22;21053;50.848;4.652;2023-01-29T01:15:26;-1.20;99.90
34837;DHT22;21053;50.848;4.652;2023-01-29T01:17:58;-1.30;99.90
34837;DHT22;21053;50.848;4.652;2023-01-29T01:20:30;-1.20;99.90
34837;DHT22;21053;50.848;4.652;2023-01-29T01:22:58;-1.30;99.90
34837;DHT22;21053;50.848;4.652;2023-01-29T01:25:27;-1.20;99.90
34837;DHT22;21053;50.848;4.652;2023-01-29T01:27:57;-1.30;99.90
34837;DHT22;21053;50.848;4.652;2023-01-29T01:30:26;-1.30;99.90
34837;DHT22;21053;50.848;4.652;2023-01-29T01:32:53;-1.20;99.90
34837;DHT22;21053;50.848;4.652;2023-01-29T01:35:20;-1.20;99.90
34837;DHT22;21053;50.848;4.652;2023-01-29T01:37:51;-1.30;99.90
34837;DHT22;21053;50.848;4.652;2023-01-29T01:40:19;-1.30;99.90
34837;DHT22;21053;50.848;4.652;2023-01-29T01:42:56;-1.30;99.90
34837;DHT22;21053;50.848;4.652;2023-01-29T01:45:33;-1.20;99.90
34837;DHT22;21053;50.848;4.652;2023-01-29T01:48:10;-1.20;99.90
34837;DHT22;21053;50.848;4.652;2023-01-29T01:50:45;-1.30;99.90
34837;DHT22;21053;50.848;4.652;2023-01-29T01:53:21;-1.20;99.90
34837;DHT22;21053;50.848;4.652;2023-01-29T01:55:55;-1.20;99.90
34837;DHT22;21053;50.848;4.652;2023-01-29T01:58:47;-1.40;99.90
34837;DHT22;21053;50.848;4.652;2023-01-29T02:01:12;-1.30;99.90
34837;DHT22;21053;50.848;4.652;2023-01-29T02:04:10;-1.30;99.90
34837;DHT22;21053;50.848;4.652;2023-01-29T02:06:57;-1.40;99.90
34837;DHT22;21053;50.848;4.652;2023-01-29T02:09:52;-1.40;99.90
34837;DHT22;21053;50.848;4.652;2023-01-29T02:12:20;-1.30;99.90
34837;DHT22;21053;50.848;4.652;2023-01-29T02:14:49;-1.20;99.90
34837;DHT22;21053;50.848;4.652;2023-01-29T02:17:19;-1.30;99.90
34837;DHT22;21053;50.848;4.652;2023-01-29T02:20:17;-1.30;99.90
34837;DHT22;21053;50.848;4.652;2023-01-29T02:23:31;-1.30;99.90
34837;DHT22;21053;50.848;4.652;2023-01-29T02:26:17;-1.40;99.90
34837;DHT22;21053;50.848;4.652;2023-01-29T02:32:25;-1.50;99.90
34837;DHT22;21053;50.848;4.652;2023-01-29T02:35:20;-1.50;99.90
34837;DHT22;21053;50.848;4.652;2023-01-29T02:38:10;-1.60;99.90
34837;DHT22;21053;50.848;4.652;2023-01-29T02:41:16;-1.70;99.90
34837;DHT22;21053;50.848;4.652;2023-01-29T02:43:58;-1.70;99.90
34837;DHT22;21053;50.848;4.652;2023-01-29T02:46:51;-1.60;99.90
34837;DHT22;21053;50.848;4.652;2023-01-29T02:49:31;-1.70;99.90
34837;DHT22;21053;50.848;4.652;2023-01-29T02:52:06;-1.60;99.90
34837;DHT22;21053;50.848;4.652;2023-01-29T02:57:24;-1.70;99.90
34837;DHT22;21053;50.848;4.652;2023-01-29T03:06:15;-1.80;99.90
34837;DHT22;21053;50.848;4.652;2023-01-29T03:08:42;-1.70;99.90
34837;DHT22;21053;50.848;4.652;2023-01-29T03:11:15;-1.60;99.90
34837;DHT22;21053;50.848;4.652;2023-01-29T03:14:15;-1.60;99.90
34837;DHT22;21053;50.848;4.652;2023-01-29T03:16:50;-1.60;99.90
34837;DHT22;21053;50.848;4.652;2023-01-29T03:19:35;-1.70;99.90
34837;DHT22;21053;50.848;4.652;2023-01-29T03:22:12;-1.70;99.90
34837;DHT22;21053;50.848;4.652;2023-01-29T03:24:48;-1.70;99.90
34837;DHT22;21053;50.848;4.652;2023-01-29T03:27:44;-1.70;99.90
34837;DHT22;21053;50.848;4.652;2023-01-29T03:30:33;-1.70;99.90
34837;DHT22;21053;50.848;4.652;2023-01-29T03:33:23;-1.60;99.90
34837;DHT22;21053;50.848;4.652;2023-01-29T03:35:57;-1.60;99.90
34837;DHT22;21053;50.848;4.652;2023-01-29T03:38:25;-1.70;99.90
34837;DHT22;21053;50.848;4.652;2023-01-29T03:41:01;-1.70;99.90
34837;DHT22;21053;50.848;4.652;2023-01-29T03:46:25;-1.70;99.90
34837;DHT22;21053;50.848;4.652;2023-01-29T03:52:08;-1.80;99.90
34837;DHT22;21053;50.848;4.652;2023-01-29T03:57:20;-1.80;99.90
34837;DHT22;21053;50.848;4.652;2023-01-29T04:05:23;-1.90;99.90
34837;DHT22;21053;50.848;4.652;2023-01-29T04:07:54;-1.90;99.90
34837;DHT22;21053;50.848;4.652;2023-01-29T04:10:24;-2.00;99.90
34837;DHT22;21053;50.848;4.652;2023-01-29T04:13:06;-2.00;99.90
34837;DHT22;21053;50.848;4.652;2023-01-29T04:15:42;-2.10;99.90
34837;DHT22;21053;50.848;4.652;2023-01-29T04:18:11;-2.10;99.90
34837;DHT22;21053;50.848;4.652;2023-01-29T04:20:37;-2.20;99.90
34837;DHT22;21053;50.848;4.652;2023-01-29T04:23:06;-2.00;99.90
34837;DHT22;21053;50.848;4.652;2023-01-29T04:25:43;-2.10;99.90
34837;DHT22;21053;50.848;4.652;2023-01-29T04:28:23;-2.10;99.90
34837;DHT22;21053;50.848;4.652;2023-01-29T04:31:04;-2.00;99.90
34837;DHT22;21053;50.848;4.652;2023-01-29T04:33:44;-2.00;99.90
34837;DHT22;21053;50.848;4.652;2023-01-29T04:36:27;-2.00;99.90
34837;DHT22;21053;50.848;4.652;2023-01-29T04:39:24;-2.00;99.90
34837;DHT22;21053;50.848;4.652;2023-01-29T04:42:04;-2.00;99.90
34837;DHT22;21053;50.848;4.652;2023-01-29T04:44:58;-2.00;99.90
34837;DHT22;21053;50.848;4.652;2023-01-29T04:47:59;-2.00;99.90
34837;DHT22;21053;50.848;4.652;2023-01-29T04:50:37;-2.00;99.90
34837;DHT22;21053;50.848;4.652;2023-01-29T04:56:00;-2.00;99.90
34837;DHT22;21053;50.848;4.652;2023-01-29T04:58:54;-1.90;99.90
34837;DHT22;21053;50.848;4.652;2023-01-29T05:01:25;-2.00;99.90
34837;DHT22;21053;50.848;4.652;2023-01-29T05:03:56;-2.00;99.90
34837;DHT22;21053;50.848;4.652;2023-01-29T05:06:26;-1.90;99.90
34837;DHT22;21053;50.848;4.652;2023-01-29T05:08:56;-1.90;99.90
34837;DHT22;21053;50.848;4.652;2023-01-29T05:11:24;-1.90;99.90
34837;DHT22;21053;50.848;4.652;2023-01-29T05:13:53;-1.80;99.90
34837;DHT22;21053;50.848;4.652;2023-01-29T05:19:00;-1.70;99.90
34837;DHT22;21053;50.848;4.652;2023-01-29T05:21:28;-1.60;99.90
34837;DHT22;21053;50.848;4.652;2023-01-29T05:24:11;-1.40;99.90
34837;DHT22;21053;50.848;4.652;2023-01-29T05:26:42;-1.40;99.90
34837;DHT22;21053;50.848;4.652;2023-01-29T05:29:30;-1.20;99.90
34837;DHT22;21053;50.848;4.652;2023-01-29T05:31:58;-1.10;99.90
34837;DHT22;21053;50.848;4.652;2023-01-29T05:34:26;-1.20;99.90
34837;DHT22;21053;50.848;4.652;2023-01-29T05:36:53;-1.10;99.90
34837;DHT22;21053;50.848;4.652;2023-01-29T05:39:22;-1.10;99.90
34837;DHT22;21053;50.848;4.652;2023-01-29T05:41:51;-1.00;99.90
34837;DHT22;21053;50.848;4.652;2023-01-29T05:44:19;-0.90;99.90
34837;DHT22;21053;50.848;4.652;2023-01-29T05:46:46;-0.70;99.90
34837;DHT22;21053;50.848;4.652;2023-01-29T05:49:16;-0.70;99.90
34837;DHT22;21053;50.848;4.652;2023-01-29T05:51:44;-0.70;99.90
34837;DHT22;21053;50.848;4.652;2023-01-29T05:54:13;-0.70;99.90
34837;DHT22;21053;50.848;4.652;2023-01-29T05:56:41;-0.60;99.90
34837;DHT22;21053;50.848;4.652;2023-01-29T05:59:08;-0.60;99.90
34837;DHT22;21053;50.848;4.652;2023-01-29T06:01:37;-0.60;99.90
34837;DHT22;21053;50.848;4.652;2023-01-29T06:04:04;-0.70;99.90
34837;DHT22;21053;50.848;4.652;2023-01-29T06:06:31;-0.60;99.90
34837;DHT22;21053;50.848;4.652;2023-01-29T06:08:59;-0.50;99.90
34837;DHT22;21053;50.848;4.652;2023-01-29T06:11:27;-0.50;99.90
34837;DHT22;21053;50.848;4.652;2023-01-29T06:13:54;-0.50;99.90
34837;DHT22;21053;50.848;4.652;2023-01-29T06:16:23;-0.40;99.90
34837;DHT22;21053;50.848;4.652;2023-01-29T06:18:49;-0.40;99.90
34837;DHT22;21053;50.848;4.652;2023-01-29T06:21:16;-0.60;99.90
34837;DHT22;21053;50.848;4.652;2023-01-29T06:23:43;-0.30;99.90
34837;DHT22;21053;50.848;4.652;2023-01-29T06:26:13;-0.20;99.90
34837;DHT22;21053;50.848;4.652;2023-01-29T06:28:40;2.30;99.90
34837;DHT22;21053;50.848;4.652;2023-01-29T06:31:06;-0.20;99.90
34837;DHT22;21053;50.848;4.652;2023-01-29T06:33:34;-0.20;99.90
34837;DHT22;21053;50.848;4.652;2023-01-29T06:36:03;-0.10;99.90
34837;DHT22;21053;50.848;4.652;2023-01-29T06:38:31;-0.10;99.90
34837;DHT22;21053;50.848;4.652;2023-01-29T06:40:58;-0.10;99.90
34837;DHT22;21053;50.848;4.652;2023-01-29T06:43:24;0.00;99.90
34837;DHT22;21053;50.848;4.652;2023-01-29T06:45:55;0.00;99.90
34837;DHT22;21053;50.848;4.652;2023-01-29T06:48:24;-0.10;99.90
34837;DHT22;21053;50.848;4.652;2023-01-29T06:50:51;-0.10;99.90
34837;DHT22;21053;50.848;4.652;2023-01-29T06:53:20;0.00;99.90
34837;DHT22;21053;50.848;4.652;2023-01-29T06:55:52;0.00;99.90
34837;DHT22;21053;50.848;4.652;2023-01-29T06:58:19;-0.10;99.90
34837;DHT22;21053;50.848;4.652;2023-01-29T07:00:47;0.10;99.90
34837;DHT22;21053;50.848;4.652;2023-01-29T07:03:18;0.30;99.90
34837;DHT22;21053;50.848;4.652;2023-01-29T07:05:51;0.30;99.90
34837;DHT22;21053;50.848;4.652;2023-01-29T07:08:18;0.20;99.90
34837;DHT22;21053;50.848;4.652;2023-01-29T07:10:47;0.30;99.90
34837;DHT22;21053;50.848;4.652;2023-01-29T07:13:14;0.20;99.90
34837;DHT22;21053;50.848;4.652;2023-01-29T07:15:43;0.30;99.90
34837;DHT22;21053;50.848;4.652;2023-01-29T07:18:09;0.30;99.90
34837;DHT22;21053;50.848;4.652;2023-01-29T07:20:40;0.20;99.90
34837;DHT22;21053;50.848;4.652;2023-01-29T07:23:11;0.20;99.90
34837;DHT22;21053;50.848;4.652;2023-01-29T07:25:39;0.40;99.90
34837;DHT22;21053;50.848;4.652;2023-01-29T07:28:05;0.50;99.90
34837;DHT22;21053;50.848;4.652;2023-01-29T07:30:33;0.40;99.90
34837;DHT22;21053;50.848;4.652;2023-01-29T07:33:05;0.50;99.90
34837;DHT22;21053;50.848;4.652;2023-01-29T07:35:34;0.50;99.90
34837;DHT22;21053;50.848;4.652;2023-01-29T07:38:03;0.50;99.90
34837;DHT22;21053;50.848;4.652;2023-01-29T07:40:29;0.40;99.90
34837;DHT22;21053;50.848;4.652;2023-01-29T07:44:03;0.30;99.90
34837;DHT22;21053;50.848;4.652;2023-01-29T07:46:30;0.30;99.90
34837;DHT22;21053;50.848;4.652;2023-01-29T07:48:57;0.40;99.90
34837;DHT22;21053;50.848;4.652;2023-01-29T07:51:23;0.60;99.90
34837;DHT22;21053;50.848;4.652;2023-01-29T07:53:50;0.70;99.90
34837;DHT22;21053;50.848;4.652;2023-01-29T07:56:17;0.80;99.90
34837;DHT22;21053;50.848;4.652;2023-01-29T07:58:43;0.80;99.90
34837;DHT22;21053;50.848;4.652;2023-01-29T08:01:10;0.80;99.90
34837;DHT22;21053;50.848;4.652;2023-01-29T08:03:37;0.80;99.90
34837;DHT22;21053;50.848;4.652;2023-01-29T08:06:04;1.00;99.90
34837;DHT22;21053;50.848;4.652;2023-01-29T08:08:32;1.00;99.90
34837;DHT22;21053;50.848;4.652;2023-01-29T08:11:02;0.90;99.90
34837;DHT22;21053;50.848;4.652;2023-01-29T08:13:30;1.00;99.90
34837;DHT22;21053;50.848;4.652;2023-01-29T08:16:00;1.00;99.90
34837;DHT22;21053;50.848;4.652;2023-01-29T08:18:29;1.00;99.90
34837;DHT22;21053;50.848;4.652;2023-01-29T08:21:02;1.10;99.90
34837;DHT22;21053;50.848;4.652;2023-01-29T08:23:28;1.10;99.90
34837;DHT22;21053;50.848;4.652;2023-01-29T08:25:56;1.10;99.90
34837;DHT22;21053;50.848;4.652;2023-01-29T08:28:23;1.30;99.90
34837;DHT22;21053;50.848;4.652;2023-01-29T08:30:49;1.40;99.90
34837;DHT22;21053;50.848;4.652;2023-01-29T08:33:15;1.50;99.90
34837;DHT22;21053;50.848;4.652;2023-01-29T08:35:42;1.30;99.90
34837;DHT22;21053;50.848;4.652;2023-01-29T08:38:09;1.30;99.90
34837;DHT22;21053;50.848;4.652;2023-01-29T08:40:35;1.20;99.90
34837;DHT22;21053;50.848;4.652;2023-01-29T08:43:04;1.20;99.90
34837;DHT22;21053;50.848;4.652;2023-01-29T08:45:40;1.30;99.90
34837;DHT22;21053;50.848;4.652;2023-01-29T08:48:08;1.30;99.90
34837;DHT22;21053;50.848;4.652;2023-01-29T08:50:35;1.60;99.90
34837;DHT22;21053;50.848;4.652;2023-01-29T08:53:04;1.40;99.90
34837;DHT22;21053;50.848;4.652;2023-01-29T08:55:33;1.30;99.90
34837;DHT22;21053;50.848;4.652;2023-01-29T08:58:03;1.30;99.90
34837;DHT22;21053;50.848;4.652;2023-01-29T09:00:32;1.50;99.90
34837;DHT22;21053;50.848;4.652;2023-01-29T09:02:59;1.50;99.90
34837;DHT22;21053;50.848;4.652;2023-01-29T09:05:27;1.60;99.90
34837;DHT22;21053;50.848;4.652;2023-01-29T09:07:55;1.50;99.90
34837;DHT22;21053;50.848;4.652;2023-01-29T09:10:23;1.70;99.90
34837;DHT22;21053;50.848;4.652;2023-01-29T09:12:50;1.90;99.90
34837;DHT22;21053;50.848;4.652;2023-01-29T09:15:19;2.00;99.90
34837;DHT22;21053;50.848;4.652;2023-01-29T09:17:46;2.10;99.90
34837;DHT22;21053;50.848;4.652;2023-01-29T09:20:14;2.00;99.90
34837;DHT22;21053;50.848;4.652;2023-01-29T09:22:40;1.80;99.90
34837;DHT22;21053;50.848;4.652;2023-01-29T09:25:06;2.00;99.90
34837;DHT22;21053;50.848;4.652;2023-01-29T09:27:34;2.00;99.90
34837;DHT22;21053;50.848;4.652;2023-01-29T09:30:01;2.00;99.90
34837;DHT22;21053;50.848;4.652;2023-01-29T09:32:27;2.00;99.90
34837;DHT22;21053;50.848;4.652;2023-01-29T09:36:40;2.10;99.90
34837;DHT22;21053;50.848;4.652;2023-01-29T09:39:08;2.20;99.90
34837;DHT22;21053;50.848;4.652;2023-01-29T09:42:33;2.30;99.90
34837;DHT22;21053;50.848;4.652;2023-01-29T09:47:14;2.30;99.90
34837;DHT22;21053;50.848;4.652;2023-01-29T09:49:46;2.40;99.90
34837;DHT22;21053;50.848;4.652;2023-01-29T09:57:18;2.40;99.90
34837;DHT22;21053;50.848;4.652;2023-01-29T09:59:44;2.50;99.90
34837;DHT22;21053;50.848;4.652;2023-01-29T10:08:29;2.70;99.90
34837;DHT22;21053;50.848;4.652;2023-01-29T10:11:32;2.70;99.90
34837;DHT22;21053;50.848;4.652;2023-01-29T10:17:00;2.60;99.90
34837;DHT22;21053;50.848;4.652;2023-01-29T10:22:25;2.80;99.90
34837;DHT22;21053;50.848;4.652;2023-01-29T10:25:03;2.90;99.90
34837;DHT22;21053;50.848;4.652;2023-01-29T10:27:33;2.90;99.90
34837;DHT22;21053;50.848;4.652;2023-01-29T10:30:39;3.00;99.90
34837;DHT22;21053;50.848;4.652;2023-01-29T10:33:16;3.00;99.90
34837;DHT22;21053;50.848;4.652;2023-01-29T10:35:48;3.00;99.90
34837;DHT22;21053;50.848;4.652;2023-01-29T10:41:21;3.00;99.90
34837;DHT22;21053;50.848;4.652;2023-01-29T10:44:31;3.10;99.90
34837;DHT22;21053;50.848;4.652;2023-01-29T10:47:31;3.30;99.90
34837;DHT22;21053;50.848;4.652;2023-01-29T10:58:12;3.40;99.90
34837;DHT22;21053;50.848;4.652;2023-01-29T11:00:44;3.50;99.90
34837;DHT22;21053;50.848;4.652;2023-01-29T11:03:27;3.40;99.90
34837;DHT22;21053;50.848;4.652;2023-01-29T11:06:33;3.50;99.90
34837;DHT22;21053;50.848;4.652;2023-01-29T11:12:00;3.60;99.90
34837;DHT22;21053;50.848;4.652;2023-01-29T11:14:38;3.70;99.90
34837;DHT22;21053;50.848;4.652;2023-01-29T11:17:18;3.70;99.90
34837;DHT22;21053;50.848;4.652;2023-01-29T11:19:48;3.70;99.90
34837;DHT22;21053;50.848;4.652;2023-01-29T11:22:22;3.70;99.90
34837;DHT22;21053;50.848;4.652;2023-01-29T11:25:18;3.80;99.90
34837;DHT22;21053;50.848;4.652;2023-01-29T11:27:59;3.80;99.90
34837;DHT22;21053;50.848;4.652;2023-01-29T11:30:39;4.00;99.90
34837;DHT22;21053;50.848;4.652;2023-01-29T11:33:17;3.90;99.90
34837;DHT22;21053;50.848;4.652;2023-01-29T11:35:43;3.90;99.90
34837;DHT22;21053;50.848;4.652;2023-01-29T11:38:22;4.00;99.90
34837;DHT22;21053;50.848;4.652;2023-01-29T11:40:52;4.10;99.90
34837;DHT22;21053;50.848;4.652;2023-01-29T11:43:30;4.30;99.90
34837;DHT22;21053;50.848;4.652;2023-01-29T11:46:10;4.30;99.90
34837;DHT22;21053;50.848;4.652;2023-01-29T11:50:36;4.40;99.90
34837;DHT22;21053;50.848;4.652;2023-01-29T11:53:03;4.40;99.90
34837;DHT22;21053;50.848;4.652;2023-01-29T11:55:34;4.50;99.90
34837;DHT22;21053;50.848;4.652;2023-01-29T12:00:49;4.60;99.90
34837;DHT22;21053;50.848;4.652;2023-01-29T12:03:35;4.80;99.90
34837;DHT22;21053;50.848;4.652;2023-01-29T12:06:07;4.70;99.90
34837;DHT22;21053;50.848;4.652;2023-01-29T12:08:39;4.80;99.90
34837;DHT22;21053;50.848;4.652;2023-01-29T12:11:30;4.70;99.90
34837;DHT22;21053;50.848;4.652;2023-01-29T12:14:01;4.80;99.90
34837;DHT22;21053;50.848;4.652;2023-01-29T12:16:37;5.00;99.90
34837;DHT22;21053;50.848;4.652;2023-01-29T12:19:34;5.00;99.90
34837;DHT22;21053;50.848;4.652;2023-01-29T12:24:57;5.40;99.90
34837;DHT22;21053;50.848;4.652;2023-01-29T12:35:44;5.30;99.90
34837;DHT22;21053;50.848;4.652;2023-01-29T12:38:16;5.40;99.90
34837;DHT22;21053;50.848;4.652;2023-01-29T12:40:52;5.40;99.90
34837;DHT22;21053;50.848;4.652;2023-01-29T12:43:40;5.30;99.90
34837;DHT22;21053;50.848;4.652;2023-01-29T12:46:13;7.90;99.90
34837;DHT22;21053;50.848;4.652;2023-01-29T12:48:41;5.40;99.90
34837;DHT22;21053;50.848;4.652;2023-01-29T12:51:18;6.70;99.90
34837;DHT22;21053;50.848;4.652;2023-01-29T12:54:22;5.30;99.90
34837;DHT22;21053;50.848;4.652;2023-01-29T12:56:58;5.20;99.90
34837;DHT22;21053;50.848;4.652;2023-01-29T12:59:38;5.30;99.90
34837;DHT22;21053;50.848;4.652;2023-01-29T13:02:14;5.40;99.90
34837;DHT22;21053;50.848;4.652;2023-01-29T13:05:29;5.50;99.90
34837;DHT22;21053;50.848;4.652;2023-01-29T13:07:40;5.60;99.90
34837;DHT22;21053;50.848;4.652;2023-01-29T13:10:12;5.60;99.90
34837;DHT22;21053;50.848;4.652;2023-01-29T13:13:00;5.50;99.90
34837;DHT22;21053;50.848;4.652;2023-01-29T13:15:32;5.70;99.90
34837;DHT22;21053;50.848;4.652;2023-01-29T13:21:15;5.80;99.90
34837;DHT22;21053;50.848;4.652;2023-01-29T13:23:54;5.80;99.90
34837;DHT22;21053;50.848;4.652;2023-01-29T13:26:21;5.90;99.90
34837;DHT22;21053;50.848;4.652;2023-01-29T13:28:51;6.00;99.90
34837;DHT22;21053;50.848;4.652;2023-01-29T13:31:33;6.00;99.90
34837;DHT22;21053;50.848;4.652;2023-01-29T13:36:52;6.10;99.90
34837;DHT22;21053;50.848;4.652;2023-01-29T13:39:30;6.20;99.90
34837;DHT22;21053;50.848;4.652;2023-01-29T13:41:59;6.10;99.90
34837;DHT22;21053;50.848;4.652;2023-01-29T13:46:57;5.90;99.90
34837;DHT22;21053;50.848;4.652;2023-01-29T13:49:37;5.90;99.90
34837;DHT22;21053;50.848;4.652;2023-01-29T13:52:30;5.80;99.90
34837;DHT22;21053;50.848;4.652;2023-01-29T13:55:04;5.90;99.90
34837;DHT22;21053;50.848;4.652;2023-01-29T13:57:52;5.90;99.90
34837;DHT22;21053;50.848;4.652;2023-01-29T14:07:48;5.90;99.90
34837;DHT22;21053;50.848;4.652;2023-01-29T14:10:22;7.20;99.90
34837;DHT22;21053;50.848;4.652;2023-01-29T14:13:46;5.80;99.90
34837;DHT22;21053;50.848;4.652;2023-01-29T14:21:22;5.70;99.90
34837;DHT22;21053;50.848;4.652;2023-01-29T14:24:37;5.80;99.90
34837;DHT22;21053;50.848;4.652;2023-01-29T14:26:46;5.40;99.90
34837;DHT22;21053;50.848;4.652;2023-01-29T14:31:42;5.70;99.90
34837;DHT22;21053;50.848;4.652;2023-01-29T14:34:17;5.70;99.90
34837;DHT22;21053;50.848;4.652;2023-01-29T14:36:47;5.60;99.90
34837;DHT22;21053;50.848;4.652;2023-01-29T14:39:28;5.70;99.90
34837;DHT22;21053;50.848;4.652;2023-01-29T14:41:56;5.70;99.90
34837;DHT22;21053;50.848;4.652;2023-01-29T14:52:03;5.60;99.90
34837;DHT22;21053;50.848;4.652;2023-01-29T14:54:30;5.40;99.90
34837;DHT22;21053;50.848;4.652;2023-01-29T14:57:02;5.90;99.90
34837;DHT22;21053;50.848;4.652;2023-01-29T14:59:38;5.50;99.90
34837;DHT22;21053;50.848;4.652;2023-01-29T15:02:28;5.60;99.90
34837;DHT22;21053;50.848;4.652;2023-01-29T15:05:06;5.50;99.90
34837;DHT22;21053;50.848;4.652;2023-01-29T15:10:19;5.50;99.90
34837;DHT22;21053;50.848;4.652;2023-01-29T15:12:51;5.70;99.90
34837;DHT22;21053;50.848;4.652;2023-01-29T15:21:10;5.50;99.90
34837;DHT22;21053;50.848;4.652;2023-01-29T15:23:42;5.50;99.90
34837;DHT22;21053;50.848;4.652;2023-01-29T15:26:20;5.50;99.90
34837;DHT22;21053;50.848;4.652;2023-01-29T15:29:00;5.60;99.90
34837;DHT22;21053;50.848;4.652;2023-01-29T15:31:29;5.70;99.90
34837;DHT22;21053;50.848;4.652;2023-01-29T15:33:58;5.70;99.90
34837;DHT22;21053;50.848;4.652;2023-01-29T15:36:30;5.70;99.90
34837;DHT22;21053;50.848;4.652;2023-01-29T15:41:37;5.60;99.90
34837;DHT22;21053;50.848;4.652;2023-01-29T15:44:07;5.70;99.90
34837;DHT22;21053;50.848;4.652;2023-01-29T15:46:41;5.70;99.90
34837;DHT22;21053;50.848;4.652;2023-01-29T15:49:50;5.60;99.90
34837;DHT22;21053;50.848;4.652;2023-01-29T15:52:21;5.60;99.90
34837;DHT22;21053;50.848;4.652;2023-01-29T15:54:50;5.50;99.90
34837;DHT22;21053;50.848;4.652;2023-01-29T15:57:26;5.60;99.90
34837;DHT22;21053;50.848;4.652;2023-01-29T15:59:57;5.60;99.90
34837;DHT22;21053;50.848;4.652;2023-01-29T16:04:55;5.60;99.90
34837;DHT22;21053;50.848;4.652;2023-01-29T16:07:22;5.50;99.90
34837;DHT22;21053;50.848;4.652;2023-01-29T16:09:51;5.50;99.90
34837;DHT22;21053;50.848;4.652;2023-01-29T16:12:19;5.50;99.90
34837;DHT22;21053;50.848;4.652;2023-01-29T16:14:49;5.70;99.90
34837;DHT22;21053;50.848;4.652;2023-01-29T16:17:30;5.70;99.90
34837;DHT22;21053;50.848;4.652;2023-01-29T16:20:02;5.50;99.90
34837;DHT22;21053;50.848;4.652;2023-01-29T16:22:34;5.30;99.90
34837;DHT22;21053;50.848;4.652;2023-01-29T16:25:07;5.30;99.90
34837;DHT22;21053;50.848;4.652;2023-01-29T16:27:39;5.30;99.90
34837;DHT22;21053;50.848;4.652;2023-01-29T16:30:09;5.30;99.90
34837;DHT22;21053;50.848;4.652;2023-01-29T16:32:37;5.30;99.90
34837;DHT22;21053;50.848;4.652;2023-01-29T16:35:12;6.70;99.90
34837;DHT22;21053;50.848;4.652;2023-01-29T16:40:30;5.20;99.90
34837;DHT22;21053;50.848;4.652;2023-01-29T16:46:07;5.20;99.90
34837;DHT22;21053;50.848;4.652;2023-01-29T16:48:43;5.20;99.90
34837;DHT22;21053;50.848;4.652;2023-01-29T16:51:22;5.00;99.90
34837;DHT22;21053;50.848;4.652;2023-01-29T16:54:08;5.10;99.90
34837;DHT22;21053;50.848;4.652;2023-01-29T16:56:37;5.20;99.90
34837;DHT22;21053;50.848;4.652;2023-01-29T16:59:24;5.20;99.90
34837;DHT22;21053;50.848;4.652;2023-01-29T17:01:54;5.00;99.90
34837;DHT22;21053;50.848;4.652;2023-01-29T17:04:23;5.00;99.90
34837;DHT22;21053;50.848;4.652;2023-01-29T17:06:58;4.90;99.90
34837;DHT22;21053;50.848;4.652;2023-01-29T17:09:34;5.00;99.90
34837;DHT22;21053;50.848;4.652;2023-01-29T17:12:08;5.00;99.90
34837;DHT22;21053;50.848;4.652;2023-01-29T17:14:52;5.20;99.90
34837;DHT22;21053;50.848;4.652;2023-01-29T17:19:21;4.90;99.90
34837;DHT22;21053;50.848;4.652;2023-01-29T17:21:52;4.90;99.90
34837;DHT22;21053;50.848;4.652;2023-01-29T17:24:21;4.80;99.90
34837;DHT22;21053;50.848;4.652;2023-01-29T17:26:48;4.80;99.90
34837;DHT22;21053;50.848;4.652;2023-01-29T17:29:19;4.70;99.90
34837;DHT22;21053;50.848;4.652;2023-01-29T17:31:50;4.70;99.90
34837;DHT22;21053;50.848;4.652;2023-01-29T17:34:17;4.80;99.90
34837;DHT22;21053;50.848;4.652;2023-01-29T17:36:46;4.80;99.90
34837;DHT22;21053;50.848;4.652;2023-01-29T17:39:17;4.80;99.90
34837;DHT22;21053;50.848;4.652;2023-01-29T17:41:54;4.80;99.90
34837;DHT22;21053;50.848;4.652;2023-01-29T17:44:20;4.80;99.90
34837;DHT22;21053;50.848;4.652;2023-01-29T17:46:47;4.80;99.90
34837;DHT22;21053;50.848;4.652;2023-01-29T17:51:50;4.90;99.90
34837;DHT22;21053;50.848;4.652;2023-01-29T17:54:16;4.80;99.90
34837;DHT22;21053;50.848;4.652;2023-01-29T17:56:41;4.80;99.90
34837;DHT22;21053;50.848;4.652;2023-01-29T17:59:16;5.20;99.90
34837;DHT22;21053;50.848;4.652;2023-01-29T18:04:46;4.70;99.90
34837;DHT22;21053;50.848;4.652;2023-01-29T18:07:15;4.70;99.90
34837;DHT22;21053;50.848;4.652;2023-01-29T18:09:41;4.70;99.90
34837;DHT22;21053;50.848;4.652;2023-01-29T18:12:12;4.70;99.90
34837;DHT22;21053;50.848;4.652;2023-01-29T18:14:55;4.80;99.90
34837;DHT22;21053;50.848;4.652;2023-01-29T18:17:26;4.90;99.90
34837;DHT22;21053;50.848;4.652;2023-01-29T18:19:53;4.90;99.90
34837;DHT22;21053;50.848;4.652;2023-01-29T18:22:31;4.90;99.90
34837;DHT22;21053;50.848;4.652;2023-01-29T18:24:59;4.90;99.90
34837;DHT22;21053;50.848;4.652;2023-01-29T18:27:24;4.80;99.90
34837;DHT22;21053;50.848;4.652;2023-01-29T18:29:50;4.80;99.90
34837;DHT22;21053;50.848;4.652;2023-01-29T18:32:17;4.70;99.90
34837;DHT22;21053;50.848;4.652;2023-01-29T18:34:45;4.70;99.90
34837;DHT22;21053;50.848;4.652;2023-01-29T18:37:13;4.80;99.90
34837;DHT22;21053;50.848;4.652;2023-01-29T18:39:42;4.60;99.90
34837;DHT22;21053;50.848;4.652;2023-01-29T18:42:07;4.80;99.90
34837;DHT22;21053;50.848;4.652;2023-01-29T18:44:33;4.90;99.90